sensor_id;sensor_type;location;lat;lon;timestamp;P1;durP1;ratioP1;P2;durP2;ratioP2
47299;SDS011;33036;51.320;17.234;2022-12-11T00:00:22;142.43;;;50.78;;
47299;SDS011;33036;51.320;17.234;2022-12-11T00:04:43;147.82;;;51.47;;
47299;SDS011;33036;51.320;17.234;2022-12-11T00:08:44;147.68;;;51.75;;
47299;SDS011;33036;51.320;17.234;2022-12-11T00:12:45;141.68;;;48.17;;
47299;SDS011;33036;51.320;17.234;2022-12-11T00:16:46;141.43;;;48.92;;
47299;SDS011;33036;51.320;17.234;2022-12-11T00:20:48;136.95;;;48.00;;
47299;SDS011;33036;51.320;17.234;2022-12-11T00:24:50;149.07;;;49.65;;
47299;SDS011;33036;51.320;17.234;2022-12-11T00:28:51;141.63;;;48.50;;
47299;SDS011;33036;51.320;17.234;2022-12-11T00:32:53;142.73;;;50.47;;
47299;SDS011;33036;51.320;17.234;2022-12-11T00:36:54;145.32;;;48.00;;
47299;SDS011;33036;51.320;17.234;2022-12-11T00:40:58;139.50;;;49.25;;
47299;SDS011;33036;51.320;17.234;2022-12-11T00:44:59;137.30;;;48.05;;
47299;SDS011;33036;51.320;17.234;2022-12-11T00:49:00;137.80;;;48.72;;
47299;SDS011;33036;51.320;17.234;2022-12-11T00:53:02;136.48;;;48.17;;
47299;SDS011;33036;51.320;17.234;2022-12-11T00:57:04;143.10;;;48.85;;
47299;SDS011;33036;51.320;17.234;2022-12-11T01:01:08;121.57;;;46.83;;
47299;SDS011;33036;51.320;17.234;2022-12-11T01:05:10;140.43;;;48.28;;
47299;SDS011;33036;51.320;17.234;2022-12-11T01:09:11;139.00;;;48.03;;
47299;SDS011;33036;51.320;17.234;2022-12-11T01:13:31;150.05;;;50.78;;
47299;SDS011;33036;51.320;17.234;2022-12-11T01:17:32;138.75;;;47.88;;
47299;SDS011;33036;51.320;17.234;2022-12-11T01:21:33;138.88;;;49.95;;
47299;SDS011;33036;51.320;17.234;2022-12-11T01:25:34;137.57;;;46.42;;
47299;SDS011;33036;51.320;17.234;2022-12-11T01:29:37;140.23;;;46.22;;
47299;SDS011;33036;51.320;17.234;2022-12-11T01:33:38;140.40;;;46.88;;
47299;SDS011;33036;51.320;17.234;2022-12-11T01:37:40;124.68;;;45.53;;
47299;SDS011;33036;51.320;17.234;2022-12-11T01:41:41;125.75;;;45.50;;
47299;SDS011;33036;51.320;17.234;2022-12-11T01:45:43;121.57;;;42.38;;
47299;SDS011;33036;51.320;17.234;2022-12-11T01:49:46;122.80;;;44.88;;
47299;SDS011;33036;51.320;17.234;2022-12-11T01:53:55;126.03;;;45.10;;
47299;SDS011;33036;51.320;17.234;2022-12-11T01:57:58;123.47;;;43.20;;
47299;SDS011;33036;51.320;17.234;2022-12-11T02:02:03;120.80;;;42.38;;
47299;SDS011;33036;51.320;17.234;2022-12-11T02:06:26;134.82;;;45.85;;
47299;SDS011;33036;51.320;17.234;2022-12-11T02:28:30;126.15;;;45.90;;
47299;SDS011;33036;51.320;17.234;2022-12-11T02:32:56;132.25;;;45.28;;
47299;SDS011;33036;51.320;17.234;2022-12-11T02:36:57;129.70;;;45.78;;
47299;SDS011;33036;51.320;17.234;2022-12-11T02:41:01;129.90;;;44.35;;
47299;SDS011;33036;51.320;17.234;2022-12-11T02:45:05;127.53;;;43.65;;
47299;SDS011;33036;51.320;17.234;2022-12-11T02:49:07;127.55;;;44.17;;
47299;SDS011;33036;51.320;17.234;2022-12-11T02:53:11;135.45;;;45.47;;
47299;SDS011;33036;51.320;17.234;2022-12-11T02:57:16;131.65;;;44.85;;
47299;SDS011;33036;51.320;17.234;2022-12-11T03:01:22;125.18;;;45.25;;
47299;SDS011;33036;51.320;17.234;2022-12-11T03:05:22;135.52;;;45.03;;
47299;SDS011;33036;51.320;17.234;2022-12-11T03:09:24;124.70;;;43.53;;
47299;SDS011;33036;51.320;17.234;2022-12-11T03:13:25;135.50;;;44.90;;
47299;SDS011;33036;51.320;17.234;2022-12-11T03:17:29;123.43;;;42.60;;
47299;SDS011;33036;51.320;17.234;2022-12-11T03:21:54;128.88;;;45.30;;
47299;SDS011;33036;51.320;17.234;2022-12-11T03:26:04;116.20;;;41.20;;
47299;SDS011;33036;51.320;17.234;2022-12-11T03:30:07;133.23;;;45.85;;
47299;SDS011;33036;51.320;17.234;2022-12-11T03:34:28;123.60;;;42.38;;
47299;SDS011;33036;51.320;17.234;2022-12-11T03:38:36;122.18;;;43.78;;
47299;SDS011;33036;51.320;17.234;2022-12-11T03:42:45;124.63;;;43.45;;
47299;SDS011;33036;51.320;17.234;2022-12-11T03:46:48;128.60;;;43.60;;
47299;SDS011;33036;51.320;17.234;2022-12-11T03:50:49;138.00;;;44.85;;
47299;SDS011;33036;51.320;17.234;2022-12-11T03:54:51;117.45;;;43.67;;
47299;SDS011;33036;51.320;17.234;2022-12-11T03:58:52;125.50;;;42.05;;
47299;SDS011;33036;51.320;17.234;2022-12-11T04:02:54;119.28;;;42.20;;
47299;SDS011;33036;51.320;17.234;2022-12-11T04:07:13;123.50;;;43.45;;
47299;SDS011;33036;51.320;17.234;2022-12-11T04:11:14;124.28;;;42.58;;
47299;SDS011;33036;51.320;17.234;2022-12-11T04:15:34;103.00;;;39.70;;
47299;SDS011;33036;51.320;17.234;2022-12-11T04:19:35;113.80;;;40.55;;
47299;SDS011;33036;51.320;17.234;2022-12-11T04:23:55;112.00;;;38.85;;
47299;SDS011;33036;51.320;17.234;2022-12-11T04:28:14;106.07;;;40.10;;
47299;SDS011;33036;51.320;17.234;2022-12-11T04:32:15;100.70;;;38.30;;
47299;SDS011;33036;51.320;17.234;2022-12-11T04:36:16;101.47;;;36.92;;
47299;SDS011;33036;51.320;17.234;2022-12-11T04:40:17;96.90;;;36.78;;
47299;SDS011;33036;51.320;17.234;2022-12-11T04:44:19;105.63;;;36.60;;
47299;SDS011;33036;51.320;17.234;2022-12-11T04:48:20;101.68;;;36.78;;
47299;SDS011;33036;51.320;17.234;2022-12-11T04:52:20;96.38;;;34.90;;
47299;SDS011;33036;51.320;17.234;2022-12-11T04:56:21;92.82;;;36.17;;
47299;SDS011;33036;51.320;17.234;2022-12-11T05:00:22;89.68;;;36.75;;
47299;SDS011;33036;51.320;17.234;2022-12-11T05:04:23;85.68;;;35.80;;
47299;SDS011;33036;51.320;17.234;2022-12-11T05:08:24;85.90;;;33.17;;
47299;SDS011;33036;51.320;17.234;2022-12-11T05:12:25;83.30;;;34.17;;
47299;SDS011;33036;51.320;17.234;2022-12-11T05:16:26;95.43;;;36.30;;
47299;SDS011;33036;51.320;17.234;2022-12-11T05:20:27;87.57;;;36.05;;
47299;SDS011;33036;51.320;17.234;2022-12-11T05:24:28;90.53;;;34.28;;
47299;SDS011;33036;51.320;17.234;2022-12-11T05:28:30;85.53;;;34.60;;
47299;SDS011;33036;51.320;17.234;2022-12-11T05:32:32;86.68;;;34.55;;
47299;SDS011;33036;51.320;17.234;2022-12-11T05:36:34;75.05;;;27.48;;
47299;SDS011;33036;51.320;17.234;2022-12-11T05:40:34;88.78;;;36.20;;
47299;SDS011;33036;51.320;17.234;2022-12-11T05:44:35;79.85;;;32.58;;
47299;SDS011;33036;51.320;17.234;2022-12-11T05:48:36;88.88;;;35.90;;
47299;SDS011;33036;51.320;17.234;2022-12-11T05:52:37;82.80;;;34.53;;
47299;SDS011;33036;51.320;17.234;2022-12-11T05:56:39;80.35;;;35.42;;
47299;SDS011;33036;51.320;17.234;2022-12-11T06:00:43;81.43;;;33.83;;
47299;SDS011;33036;51.320;17.234;2022-12-11T06:04:44;77.60;;;32.17;;
47299;SDS011;33036;51.320;17.234;2022-12-11T06:08:45;83.68;;;33.97;;
47299;SDS011;33036;51.320;17.234;2022-12-11T06:12:49;91.38;;;33.80;;
47299;SDS011;33036;51.320;17.234;2022-12-11T06:16:50;75.22;;;32.90;;
47299;SDS011;33036;51.320;17.234;2022-12-11T06:20:51;83.00;;;35.17;;
47299;SDS011;33036;51.320;17.234;2022-12-11T06:24:52;88.55;;;35.22;;
47299;SDS011;33036;51.320;17.234;2022-12-11T06:28:53;79.97;;;33.80;;
47299;SDS011;33036;51.320;17.234;2022-12-11T06:32:54;79.18;;;34.67;;
47299;SDS011;33036;51.320;17.234;2022-12-11T06:36:57;74.85;;;32.13;;
47299;SDS011;33036;51.320;17.234;2022-12-11T06:40:58;79.68;;;31.77;;
47299;SDS011;33036;51.320;17.234;2022-12-11T06:45:02;79.45;;;30.95;;
47299;SDS011;33036;51.320;17.234;2022-12-11T06:49:03;80.07;;;33.95;;
47299;SDS011;33036;51.320;17.234;2022-12-11T06:53:04;78.10;;;32.38;;
47299;SDS011;33036;51.320;17.234;2022-12-11T06:57:05;76.70;;;31.98;;
47299;SDS011;33036;51.320;17.234;2022-12-11T07:01:16;74.85;;;31.13;;
47299;SDS011;33036;51.320;17.234;2022-12-11T07:05:19;73.45;;;30.52;;
47299;SDS011;33036;51.320;17.234;2022-12-11T07:09:20;70.95;;;29.13;;
47299;SDS011;33036;51.320;17.234;2022-12-11T07:13:22;70.00;;;28.58;;
47299;SDS011;33036;51.320;17.234;2022-12-11T07:17:23;67.53;;;28.92;;
47299;SDS011;33036;51.320;17.234;2022-12-11T07:21:24;68.53;;;27.10;;
47299;SDS011;33036;51.320;17.234;2022-12-11T07:25:25;61.72;;;28.08;;
47299;SDS011;33036;51.320;17.234;2022-12-11T07:29:26;66.95;;;29.55;;
47299;SDS011;33036;51.320;17.234;2022-12-11T07:33:27;71.90;;;28.73;;
47299;SDS011;33036;51.320;17.234;2022-12-11T07:37:28;60.90;;;27.65;;
47299;SDS011;33036;51.320;17.234;2022-12-11T07:41:29;50.40;;;17.98;;
47299;SDS011;33036;51.320;17.234;2022-12-11T07:45:31;66.18;;;24.98;;
47299;SDS011;33036;51.320;17.234;2022-12-11T07:49:32;67.63;;;27.38;;
47299;SDS011;33036;51.320;17.234;2022-12-11T07:53:33;65.25;;;26.85;;
47299;SDS011;33036;51.320;17.234;2022-12-11T07:57:34;63.55;;;25.08;;
47299;SDS011;33036;51.320;17.234;2022-12-11T08:01:35;67.90;;;27.38;;
47299;SDS011;33036;51.320;17.234;2022-12-11T08:05:36;58.53;;;24.80;;
47299;SDS011;33036;51.320;17.234;2022-12-11T08:09:38;61.47;;;26.00;;
47299;SDS011;33036;51.320;17.234;2022-12-11T08:13:39;67.97;;;28.30;;
47299;SDS011;33036;51.320;17.234;2022-12-11T08:17:41;70.70;;;28.42;;
47299;SDS011;33036;51.320;17.234;2022-12-11T08:21:43;67.10;;;27.50;;
47299;SDS011;33036;51.320;17.234;2022-12-11T08:25:44;69.60;;;27.80;;
47299;SDS011;33036;51.320;17.234;2022-12-11T08:29:45;67.85;;;28.45;;
47299;SDS011;33036;51.320;17.234;2022-12-11T08:33:47;68.22;;;29.58;;
47299;SDS011;33036;51.320;17.234;2022-12-11T08:37:50;64.53;;;27.40;;
47299;SDS011;33036;51.320;17.234;2022-12-11T08:41:51;70.30;;;29.75;;
47299;SDS011;33036;51.320;17.234;2022-12-11T08:45:52;68.82;;;29.40;;
47299;SDS011;33036;51.320;17.234;2022-12-11T08:49:53;68.93;;;28.65;;
47299;SDS011;33036;51.320;17.234;2022-12-11T08:53:55;68.00;;;29.55;;
47299;SDS011;33036;51.320;17.234;2022-12-11T08:57:57;69.25;;;28.98;;
47299;SDS011;33036;51.320;17.234;2022-12-11T09:01:58;72.03;;;28.17;;
47299;SDS011;33036;51.320;17.234;2022-12-11T09:06:09;68.15;;;28.48;;
47299;SDS011;33036;51.320;17.234;2022-12-11T09:10:13;60.33;;;26.05;;
47299;SDS011;33036;51.320;17.234;2022-12-11T09:14:14;63.67;;;27.20;;
47299;SDS011;33036;51.320;17.234;2022-12-11T09:18:15;61.20;;;25.70;;
47299;SDS011;33036;51.320;17.234;2022-12-11T09:22:16;56.22;;;23.05;;
47299;SDS011;33036;51.320;17.234;2022-12-11T09:26:18;63.72;;;25.77;;
47299;SDS011;33036;51.320;17.234;2022-12-11T09:30:20;54.05;;;22.67;;
47299;SDS011;33036;51.320;17.234;2022-12-11T09:34:21;51.10;;;22.00;;
47299;SDS011;33036;51.320;17.234;2022-12-11T09:38:22;46.35;;;19.60;;
47299;SDS011;33036;51.320;17.234;2022-12-11T09:42:26;38.35;;;16.23;;
47299;SDS011;33036;51.320;17.234;2022-12-11T09:46:30;40.92;;;16.83;;
47299;SDS011;33036;51.320;17.234;2022-12-11T09:50:32;49.13;;;19.73;;
47299;SDS011;33036;51.320;17.234;2022-12-11T09:54:34;48.95;;;19.23;;
47299;SDS011;33036;51.320;17.234;2022-12-11T10:02:48;52.17;;;22.25;;
47299;SDS011;33036;51.320;17.234;2022-12-11T10:07:10;62.13;;;23.92;;
47299;SDS011;33036;51.320;17.234;2022-12-11T10:11:34;58.38;;;25.05;;
47299;SDS011;33036;51.320;17.234;2022-12-11T10:15:48;53.88;;;21.35;;
47299;SDS011;33036;51.320;17.234;2022-12-11T10:19:54;52.67;;;21.92;;
47299;SDS011;33036;51.320;17.234;2022-12-11T10:24:00;50.67;;;20.88;;
47299;SDS011;33036;51.320;17.234;2022-12-11T10:28:11;46.75;;;20.90;;
47299;SDS011;33036;51.320;17.234;2022-12-11T10:32:22;47.30;;;20.73;;
47299;SDS011;33036;51.320;17.234;2022-12-11T10:40:30;46.08;;;21.85;;
47299;SDS011;33036;51.320;17.234;2022-12-11T10:44:33;49.30;;;21.83;;
47299;SDS011;33036;51.320;17.234;2022-12-11T10:48:34;54.97;;;23.13;;
47299;SDS011;33036;51.320;17.234;2022-12-11T10:52:48;53.55;;;23.45;;
47299;SDS011;33036;51.320;17.234;2022-12-11T10:56:49;46.95;;;22.00;;
47299;SDS011;33036;51.320;17.234;2022-12-11T11:00:59;45.78;;;21.17;;
47299;SDS011;33036;51.320;17.234;2022-12-11T11:05:25;43.78;;;20.30;;
47299;SDS011;33036;51.320;17.234;2022-12-11T11:09:36;46.22;;;21.60;;
47299;SDS011;33036;51.320;17.234;2022-12-11T11:13:40;47.38;;;21.58;;
47299;SDS011;33036;51.320;17.234;2022-12-11T11:17:46;44.95;;;21.63;;
47299;SDS011;33036;51.320;17.234;2022-12-11T11:21:52;41.22;;;20.98;;
47299;SDS011;33036;51.320;17.234;2022-12-11T11:25:57;46.13;;;21.25;;
47299;SDS011;33036;51.320;17.234;2022-12-11T11:30:01;45.85;;;22.08;;
47299;SDS011;33036;51.320;17.234;2022-12-11T11:38:17;43.95;;;19.48;;
47299;SDS011;33036;51.320;17.234;2022-12-11T11:42:25;43.95;;;20.60;;
47299;SDS011;33036;51.320;17.234;2022-12-11T11:51:24;44.88;;;20.00;;
47299;SDS011;33036;51.320;17.234;2022-12-11T11:59:58;49.47;;;22.08;;
47299;SDS011;33036;51.320;17.234;2022-12-11T12:04:09;46.63;;;21.30;;
47299;SDS011;33036;51.320;17.234;2022-12-11T12:12:21;45.22;;;22.25;;
47299;SDS011;33036;51.320;17.234;2022-12-11T12:16:44;46.03;;;21.85;;
47299;SDS011;33036;51.320;17.234;2022-12-11T12:21:03;48.50;;;21.23;;
47299;SDS011;33036;51.320;17.234;2022-12-11T12:29:40;44.97;;;21.60;;
47299;SDS011;33036;51.320;17.234;2022-12-11T12:33:52;47.05;;;21.05;;
47299;SDS011;33036;51.320;17.234;2022-12-11T12:42:20;44.42;;;20.00;;
47299;SDS011;33036;51.320;17.234;2022-12-11T12:50:58;42.17;;;18.90;;
47299;SDS011;33036;51.320;17.234;2022-12-11T12:59:32;29.20;;;13.68;;
47299;SDS011;33036;51.320;17.234;2022-12-11T13:03:35;44.97;;;20.42;;
47299;SDS011;33036;51.320;17.234;2022-12-11T13:07:37;45.35;;;20.45;;
47299;SDS011;33036;51.320;17.234;2022-12-11T13:11:50;44.58;;;21.13;;
47299;SDS011;33036;51.320;17.234;2022-12-11T13:20:17;49.17;;;22.02;;
47299;SDS011;33036;51.320;17.234;2022-12-11T13:28:23;49.42;;;20.70;;
47299;SDS011;33036;51.320;17.234;2022-12-11T13:32:32;46.60;;;21.20;;
47299;SDS011;33036;51.320;17.234;2022-12-11T13:36:36;48.72;;;21.15;;
47299;SDS011;33036;51.320;17.234;2022-12-11T13:40:40;45.25;;;21.42;;
47299;SDS011;33036;51.320;17.234;2022-12-11T13:44:45;43.95;;;21.42;;
47299;SDS011;33036;51.320;17.234;2022-12-11T13:48:49;49.45;;;22.50;;
47299;SDS011;33036;51.320;17.234;2022-12-11T13:52:55;48.80;;;21.90;;
47299;SDS011;33036;51.320;17.234;2022-12-11T13:57:02;48.00;;;22.55;;
47299;SDS011;33036;51.320;17.234;2022-12-11T14:01:06;49.03;;;21.10;;
47299;SDS011;33036;51.320;17.234;2022-12-11T14:05:10;45.10;;;20.42;;
47299;SDS011;33036;51.320;17.234;2022-12-11T14:09:16;42.45;;;20.08;;
47299;SDS011;33036;51.320;17.234;2022-12-11T14:17:29;39.42;;;19.08;;
47299;SDS011;33036;51.320;17.234;2022-12-11T14:21:32;36.58;;;17.38;;
47299;SDS011;33036;51.320;17.234;2022-12-11T14:25:33;36.95;;;16.90;;
47299;SDS011;33036;51.320;17.234;2022-12-11T14:29:35;37.63;;;17.42;;
47299;SDS011;33036;51.320;17.234;2022-12-11T14:33:36;35.75;;;17.40;;
47299;SDS011;33036;51.320;17.234;2022-12-11T14:37:40;35.80;;;16.75;;
47299;SDS011;33036;51.320;17.234;2022-12-11T14:45:48;37.60;;;17.92;;
47299;SDS011;33036;51.320;17.234;2022-12-11T14:49:51;40.88;;;17.80;;
47299;SDS011;33036;51.320;17.234;2022-12-11T14:53:58;41.40;;;18.23;;
47299;SDS011;33036;51.320;17.234;2022-12-11T14:58:01;40.22;;;18.38;;
47299;SDS011;33036;51.320;17.234;2022-12-11T15:02:27;40.75;;;17.85;;
47299;SDS011;33036;51.320;17.234;2022-12-11T15:06:31;53.00;;;26.67;;
47299;SDS011;33036;51.320;17.234;2022-12-11T15:10:58;57.60;;;23.67;;
47299;SDS011;33036;51.320;17.234;2022-12-11T15:15:04;42.60;;;19.95;;
47299;SDS011;33036;51.320;17.234;2022-12-11T15:19:19;88.38;;;37.22;;
47299;SDS011;33036;51.320;17.234;2022-12-11T15:23:23;44.08;;;22.00;;
47299;SDS011;33036;51.320;17.234;2022-12-11T15:31:37;78.13;;;40.85;;
47299;SDS011;33036;51.320;17.234;2022-12-11T15:35:38;54.60;;;26.30;;
47299;SDS011;33036;51.320;17.234;2022-12-11T15:39:51;41.90;;;20.10;;
47299;SDS011;33036;51.320;17.234;2022-12-11T15:43:54;39.45;;;18.00;;
47299;SDS011;33036;51.320;17.234;2022-12-11T15:47:56;37.70;;;17.80;;
47299;SDS011;33036;51.320;17.234;2022-12-11T15:51:59;43.53;;;18.15;;
47299;SDS011;33036;51.320;17.234;2022-12-11T15:55:59;43.78;;;18.30;;
47299;SDS011;33036;51.320;17.234;2022-12-11T16:00:02;32.97;;;16.17;;
47299;SDS011;33036;51.320;17.234;2022-12-11T16:04:07;36.35;;;15.20;;
47299;SDS011;33036;51.320;17.234;2022-12-11T16:08:10;39.50;;;18.00;;
47299;SDS011;33036;51.320;17.234;2022-12-11T16:12:14;38.80;;;16.83;;
47299;SDS011;33036;51.320;17.234;2022-12-11T16:16:15;35.97;;;17.05;;
47299;SDS011;33036;51.320;17.234;2022-12-11T16:20:17;42.47;;;19.35;;
47299;SDS011;33036;51.320;17.234;2022-12-11T16:24:18;42.83;;;17.33;;
47299;SDS011;33036;51.320;17.234;2022-12-11T16:28:19;36.97;;;17.23;;
47299;SDS011;33036;51.320;17.234;2022-12-11T16:32:21;47.30;;;21.30;;
47299;SDS011;33036;51.320;17.234;2022-12-11T16:36:22;50.65;;;20.20;;
47299;SDS011;33036;51.320;17.234;2022-12-11T16:40:24;76.10;;;26.60;;
47299;SDS011;33036;51.320;17.234;2022-12-11T16:44:27;59.38;;;23.17;;
47299;SDS011;33036;51.320;17.234;2022-12-11T16:48:28;47.72;;;19.85;;
47299;SDS011;33036;51.320;17.234;2022-12-11T16:52:30;82.43;;;28.00;;
47299;SDS011;33036;51.320;17.234;2022-12-11T16:56:32;50.03;;;21.55;;
47299;SDS011;33036;51.320;17.234;2022-12-11T17:00:33;47.78;;;20.95;;
47299;SDS011;33036;51.320;17.234;2022-12-11T17:04:35;36.78;;;17.73;;
47299;SDS011;33036;51.320;17.234;2022-12-11T17:08:38;42.55;;;18.90;;
47299;SDS011;33036;51.320;17.234;2022-12-11T17:12:42;42.05;;;18.60;;
47299;SDS011;33036;51.320;17.234;2022-12-11T17:16:43;39.42;;;18.90;;
47299;SDS011;33036;51.320;17.234;2022-12-11T17:20:44;36.70;;;18.23;;
47299;SDS011;33036;51.320;17.234;2022-12-11T17:24:46;38.65;;;16.83;;
47299;SDS011;33036;51.320;17.234;2022-12-11T17:28:49;36.85;;;15.32;;
47299;SDS011;33036;51.320;17.234;2022-12-11T17:32:52;41.05;;;17.80;;
47299;SDS011;33036;51.320;17.234;2022-12-11T17:36:53;37.85;;;16.77;;
47299;SDS011;33036;51.320;17.234;2022-12-11T17:40:54;42.10;;;19.77;;
47299;SDS011;33036;51.320;17.234;2022-12-11T17:44:57;38.33;;;16.92;;
47299;SDS011;33036;51.320;17.234;2022-12-11T17:49:00;38.33;;;17.33;;
47299;SDS011;33036;51.320;17.234;2022-12-11T17:53:03;43.28;;;19.27;;
47299;SDS011;33036;51.320;17.234;2022-12-11T17:57:05;40.78;;;18.20;;
47299;SDS011;33036;51.320;17.234;2022-12-11T18:01:17;40.75;;;17.33;;
47299;SDS011;33036;51.320;17.234;2022-12-11T18:05:55;43.90;;;19.65;;
47299;SDS011;33036;51.320;17.234;2022-12-11T18:10:02;41.08;;;17.13;;
47299;SDS011;33036;51.320;17.234;2022-12-11T18:14:03;35.95;;;14.88;;
47299;SDS011;33036;51.320;17.234;2022-12-11T18:18:05;40.60;;;19.10;;
47299;SDS011;33036;51.320;17.234;2022-12-11T18:22:07;38.63;;;17.88;;
47299;SDS011;33036;51.320;17.234;2022-12-11T18:26:09;41.08;;;18.95;;
47299;SDS011;33036;51.320;17.234;2022-12-11T18:30:14;43.58;;;19.27;;
47299;SDS011;33036;51.320;17.234;2022-12-11T18:34:16;39.00;;;17.67;;
47299;SDS011;33036;51.320;17.234;2022-12-11T18:38:17;39.78;;;18.85;;
47299;SDS011;33036;51.320;17.234;2022-12-11T18:42:20;42.03;;;17.75;;
47299;SDS011;33036;51.320;17.234;2022-12-11T18:46:21;37.70;;;17.60;;
47299;SDS011;33036;51.320;17.234;2022-12-11T18:50:24;42.90;;;18.90;;
47299;SDS011;33036;51.320;17.234;2022-12-11T18:54:26;42.08;;;18.90;;
47299;SDS011;33036;51.320;17.234;2022-12-11T18:58:27;48.80;;;18.38;;
47299;SDS011;33036;51.320;17.234;2022-12-11T19:02:29;44.35;;;18.60;;
47299;SDS011;33036;51.320;17.234;2022-12-11T19:06:30;42.50;;;20.50;;
47299;SDS011;33036;51.320;17.234;2022-12-11T19:10:33;46.97;;;21.08;;
47299;SDS011;33036;51.320;17.234;2022-12-11T19:14:44;33.30;;;14.93;;
47299;SDS011;33036;51.320;17.234;2022-12-11T19:18:47;45.40;;;19.00;;
47299;SDS011;33036;51.320;17.234;2022-12-11T19:22:48;50.08;;;20.90;;
47299;SDS011;33036;51.320;17.234;2022-12-11T19:26:50;48.22;;;22.35;;
47299;SDS011;33036;51.320;17.234;2022-12-11T19:30:51;49.55;;;20.45;;
47299;SDS011;33036;51.320;17.234;2022-12-11T19:34:52;48.92;;;22.00;;
47299;SDS011;33036;51.320;17.234;2022-12-11T19:38:54;52.08;;;24.10;;
47299;SDS011;33036;51.320;17.234;2022-12-11T19:42:56;55.90;;;23.55;;
47299;SDS011;33036;51.320;17.234;2022-12-11T19:46:57;48.92;;;22.13;;
47299;SDS011;33036;51.320;17.234;2022-12-11T19:51:08;48.22;;;22.58;;
47299;SDS011;33036;51.320;17.234;2022-12-11T19:55:12;46.88;;;20.48;;
47299;SDS011;33036;51.320;17.234;2022-12-11T19:59:18;51.33;;;22.90;;
47299;SDS011;33036;51.320;17.234;2022-12-11T20:03:19;52.38;;;20.33;;
47299;SDS011;33036;51.320;17.234;2022-12-11T20:07:23;50.15;;;22.05;;
47299;SDS011;33036;51.320;17.234;2022-12-11T20:11:25;47.55;;;20.92;;
47299;SDS011;33036;51.320;17.234;2022-12-11T20:15:26;45.88;;;18.42;;
47299;SDS011;33036;51.320;17.234;2022-12-11T20:19:28;48.92;;;21.00;;
47299;SDS011;33036;51.320;17.234;2022-12-11T20:23:30;50.25;;;22.10;;
47299;SDS011;33036;51.320;17.234;2022-12-11T20:27:32;48.08;;;22.08;;
47299;SDS011;33036;51.320;17.234;2022-12-11T20:31:33;50.33;;;21.88;;
47299;SDS011;33036;51.320;17.234;2022-12-11T20:35:35;46.35;;;21.20;;
47299;SDS011;33036;51.320;17.234;2022-12-11T20:39:36;51.10;;;23.95;;
47299;SDS011;33036;51.320;17.234;2022-12-11T20:43:39;48.95;;;20.88;;
47299;SDS011;33036;51.320;17.234;2022-12-11T20:47:40;54.47;;;23.40;;
47299;SDS011;33036;51.320;17.234;2022-12-11T20:51:42;52.97;;;21.35;;
47299;SDS011;33036;51.320;17.234;2022-12-11T20:55:43;52.85;;;24.05;;
47299;SDS011;33036;51.320;17.234;2022-12-11T20:59:44;48.45;;;22.67;;
47299;SDS011;33036;51.320;17.234;2022-12-11T21:03:46;56.60;;;23.73;;
47299;SDS011;33036;51.320;17.234;2022-12-11T21:07:47;48.50;;;23.75;;
47299;SDS011;33036;51.320;17.234;2022-12-11T21:11:49;49.85;;;22.75;;
47299;SDS011;33036;51.320;17.234;2022-12-11T21:15:50;57.65;;;23.60;;
47299;SDS011;33036;51.320;17.234;2022-12-11T21:19:55;52.45;;;21.15;;
47299;SDS011;33036;51.320;17.234;2022-12-11T21:23:57;54.58;;;22.33;;
47299;SDS011;33036;51.320;17.234;2022-12-11T21:27:58;48.83;;;21.15;;
47299;SDS011;33036;51.320;17.234;2022-12-11T21:32:01;57.53;;;22.58;;
47299;SDS011;33036;51.320;17.234;2022-12-11T21:36:02;57.22;;;24.42;;
47299;SDS011;33036;51.320;17.234;2022-12-11T21:40:05;57.10;;;23.42;;
47299;SDS011;33036;51.320;17.234;2022-12-11T21:44:06;53.70;;;23.40;;
47299;SDS011;33036;51.320;17.234;2022-12-11T21:48:07;60.80;;;25.88;;
47299;SDS011;33036;51.320;17.234;2022-12-11T21:52:08;56.80;;;24.23;;
47299;SDS011;33036;51.320;17.234;2022-12-11T21:56:11;54.63;;;21.50;;
47299;SDS011;33036;51.320;17.234;2022-12-11T22:00:14;57.83;;;23.80;;
47299;SDS011;33036;51.320;17.234;2022-12-11T22:04:15;52.28;;;23.25;;
47299;SDS011;33036;51.320;17.234;2022-12-11T22:08:16;57.03;;;23.73;;
47299;SDS011;33036;51.320;17.234;2022-12-11T22:12:22;55.95;;;22.60;;
47299;SDS011;33036;51.320;17.234;2022-12-11T22:16:25;54.58;;;24.27;;
47299;SDS011;33036;51.320;17.234;2022-12-11T22:20:25;55.05;;;24.73;;
47299;SDS011;33036;51.320;17.234;2022-12-11T22:24:27;58.95;;;22.73;;
47299;SDS011;33036;51.320;17.234;2022-12-11T22:28:27;54.85;;;21.92;;
47299;SDS011;33036;51.320;17.234;2022-12-11T22:32:28;59.55;;;24.65;;
47299;SDS011;33036;51.320;17.234;2022-12-11T22:36:29;55.05;;;24.20;;
47299;SDS011;33036;51.320;17.234;2022-12-11T22:40:31;66.40;;;24.67;;
47299;SDS011;33036;51.320;17.234;2022-12-11T22:44:32;56.97;;;24.38;;
47299;SDS011;33036;51.320;17.234;2022-12-11T22:48:33;60.97;;;25.70;;
47299;SDS011;33036;51.320;17.234;2022-12-11T22:52:34;66.65;;;27.27;;
47299;SDS011;33036;51.320;17.234;2022-12-11T22:56:36;64.97;;;26.15;;
47299;SDS011;33036;51.320;17.234;2022-12-11T23:00:36;68.25;;;27.67;;
47299;SDS011;33036;51.320;17.234;2022-12-11T23:04:39;67.55;;;27.02;;
47299;SDS011;33036;51.320;17.234;2022-12-11T23:08:40;66.35;;;27.83;;
47299;SDS011;33036;51.320;17.234;2022-12-11T23:12:42;62.70;;;26.48;;
47299;SDS011;33036;51.320;17.234;2022-12-11T23:16:43;61.97;;;26.05;;
47299;SDS011;33036;51.320;17.234;2022-12-11T23:20:44;67.32;;;26.98;;
47299;SDS011;33036;51.320;17.234;2022-12-11T23:24:45;67.43;;;27.13;;
47299;SDS011;33036;51.320;17.234;2022-12-11T23:28:46;69.85;;;28.95;;
47299;SDS011;33036;51.320;17.234;2022-12-11T23:32:47;63.80;;;27.10;;
47299;SDS011;33036;51.320;17.234;2022-12-11T23:36:48;62.30;;;26.83;;
47299;SDS011;33036;51.320;17.234;2022-12-11T23:40:49;62.38;;;25.15;;
47299;SDS011;33036;51.320;17.234;2022-12-11T23:44:51;65.07;;;24.63;;
47299;SDS011;33036;51.320;17.234;2022-12-11T23:48:52;57.03;;;24.60;;
47299;SDS011;33036;51.320;17.234;2022-12-11T23:52:53;59.17;;;25.60;;
47299;SDS011;33036;51.320;17.234;2022-12-11T23:56:54;58.83;;;24.40;;
